Terminal Aerodrome Forecast
Issued by NWS

Home | Current Version | Previous Version | Text Only | Print | Product List | Glossary Off
Versions: 1 2 3 4 5 6 7 8 9 10 11 12 13

000
FTUS43 KMPX 161127
TAFAXN
TAF
KAXN 161127Z 1612/1712 13005KT P6SM OVC060
     FM161500 27008KT P6SM SCT025 BKN040
     FM162000 29010KT P6SM BKN050
     FM170100 36006KT P6SM FEW060=

USA.gov is the U.S. government's official web portal to all federal, state and local government web resources and services.